Terminal Aerodrome Forecast
Issued by NWS Binghamton, NY

Home | Current Version | Previous Version | Text Only | Print | Product List | Glossary On
Versions: 1 2 3 4 5 6 7 8 9 10 11 12 13 14 15 16 17 18 19 20 21
000
FTUS41 KBGM 220800 AAB
TAFBGM
TAF AMD
KBGM 220855Z 2209/2306 VRB03KT 1/2SM FG VV002
      TEMPO 2212/2213 2SM BR BKN012
     FM221300 14003KT P6SM BKN035
     FM221800 14005KT 5SM SHRA BR BKN022 OVC035
     FM230000 13005KT 5SM BR BKN025=

USA.gov is the U.S. government's official web portal to all federal, state and local government web resources and services.